createdAt,value
2023-05-15T00:00:50.619Z,34.82
2023-05-15T00:01:50.632Z,34.82
2023-05-15T00:02:50.736Z,34.91
2023-05-15T00:03:50.722Z,34.84
2023-05-15T00:04:50.694Z,34.86
2023-05-15T00:05:50.638Z,34.89
2023-05-15T00:06:50.631Z,34.85
2023-05-15T00:07:50.626Z,34.89
2023-05-15T00:08:50.633Z,34.88
2023-05-15T00:09:50.633Z,34.86
2023-05-15T00:11:00.654Z,34.86
2023-05-15T00:11:50.658Z,34.88
2023-05-15T00:12:50.624Z,34.86
2023-05-15T00:13:50.626Z,34.85
2023-05-15T00:14:50.618Z,34.88
2023-05-15T00:15:50.653Z,34.85
2023-05-15T00:16:50.595Z,34.93
2023-05-15T00:17:50.633Z,34.88
2023-05-15T00:18:50.626Z,34.95
2023-05-15T00:19:50.580Z,34.90
2023-05-15T00:20:50.561Z,34.91
2023-05-15T00:21:50.554Z,34.88
2023-05-15T00:22:50.541Z,34.90
2023-05-15T00:23:50.547Z,34.90
2023-05-15T00:24:50.569Z,34.91
2023-05-15T00:25:50.547Z,34.94
2023-05-15T00:26:51.440Z,34.92
2023-05-15T00:27:50.553Z,34.90
2023-05-15T00:28:50.502Z,34.93
2023-05-15T00:29:50.500Z,34.92
2023-05-15T00:30:50.509Z,34.90
2023-05-15T00:31:50.597Z,34.93
2023-05-15T00:32:50.516Z,34.90
2023-05-15T00:33:50.481Z,34.97
2023-05-15T00:34:50.467Z,34.93
2023-05-15T00:35:50.460Z,34.90
2023-05-15T00:36:50.449Z,34.93
2023-05-15T00:37:50.443Z,34.98
2023-05-15T00:38:50.440Z,34.97
2023-05-15T00:39:50.437Z,34.95
2023-05-15T00:40:50.424Z,34.94
2023-05-15T00:41:50.420Z,34.95
2023-05-15T00:42:50.412Z,34.94
2023-05-15T00:43:50.430Z,34.98
2023-05-15T00:44:50.399Z,34.94
2023-05-15T00:45:50.392Z,34.94
2023-05-15T00:46:50.412Z,34.93
2023-05-15T00:47:50.432Z,34.94
2023-05-15T00:48:50.385Z,34.90
2023-05-15T00:49:50.372Z,34.93
2023-05-15T00:50:50.372Z,34.94
2023-05-15T00:51:50.359Z,34.90
2023-05-15T00:52:50.349Z,34.94
2023-05-15T00:53:50.344Z,34.95
2023-05-15T00:54:50.332Z,34.93
2023-05-15T00:55:50.332Z,34.95
2023-05-15T00:56:50.319Z,34.97
2023-05-15T00:57:50.310Z,34.94
2023-05-15T00:58:50.322Z,34.94
2023-05-15T00:59:50.323Z,34.96
2023-05-15T01:00:50.351Z,34.96
2023-05-15T01:01:50.279Z,34.95
2023-05-15T01:02:50.362Z,34.97
2023-05-15T01:03:50.271Z,34.91
2023-05-15T01:04:50.273Z,34.93
2023-05-15T01:05:50.271Z,34.95
2023-05-15T01:06:50.257Z,34.96
2023-05-15T01:07:50.243Z,34.96
2023-05-15T01:08:50.250Z,34.96
2023-05-15T01:09:50.247Z,34.95
2023-05-15T01:10:50.218Z,34.99
2023-05-15T01:11:50.223Z,34.94
2023-05-15T01:12:50.214Z,34.91
2023-05-15T01:13:50.209Z,34.95
2023-05-15T01:14:50.200Z,34.94
2023-05-15T01:15:50.236Z,34.94
2023-05-15T01:16:50.174Z,34.95
2023-05-15T01:17:50.202Z,34.96
2023-05-15T01:18:50.273Z,35.00
2023-05-15T01:19:50.324Z,34.96
2023-05-15T01:20:50.203Z,34.96
2023-05-15T01:21:50.227Z,34.90
2023-05-15T01:22:50.219Z,34.92
2023-05-15T01:23:50.228Z,34.94
2023-05-15T01:24:50.271Z,34.94
2023-05-15T01:25:50.248Z,34.99
2023-05-15T01:26:50.256Z,34.92
2023-05-15T01:27:50.260Z,34.92
2023-05-15T01:28:50.265Z,34.95
2023-05-15T01:29:50.277Z,34.96
2023-05-15T01:30:50.294Z,34.98
2023-05-15T01:31:50.399Z,34.94
2023-05-15T01:32:50.340Z,35.00
2023-05-15T01:33:50.323Z,34.92
2023-05-15T01:34:50.327Z,34.91
2023-05-15T01:35:50.335Z,34.99
2023-05-15T01:36:50.343Z,34.96
2023-05-15T01:37:50.347Z,34.95
2023-05-15T01:38:50.369Z,34.92
2023-05-15T01:39:50.378Z,34.95
2023-05-15T01:40:50.412Z,34.96
2023-05-15T01:41:50.402Z,34.95
2023-05-15T01:42:50.424Z,34.96
2023-05-15T01:43:50.458Z,34.95
2023-05-15T01:44:50.449Z,34.95
2023-05-15T01:45:50.469Z,34.95
2023-05-15T01:46:50.568Z,34.97
2023-05-15T01:47:50.563Z,34.97
2023-05-15T01:48:50.522Z,34.95
2023-05-15T01:49:50.534Z,34.93
2023-05-15T01:50:50.575Z,34.97
2023-05-15T01:51:50.573Z,34.92
2023-05-15T01:52:50.645Z,34.93
2023-05-15T01:53:50.610Z,34.96
2023-05-15T01:54:50.617Z,34.93
2023-05-15T01:55:50.653Z,34.96
2023-05-15T01:56:50.679Z,34.95
2023-05-15T01:57:50.663Z,34.95
2023-05-15T01:58:50.678Z,34.95
2023-05-15T01:59:50.693Z,34.95
2023-05-15T02:00:50.726Z,34.93
2023-05-15T02:01:50.835Z,34.96
2023-05-15T02:02:50.879Z,34.94
2023-05-15T02:03:50.970Z,34.97
2023-05-15T02:04:50.841Z,34.95
2023-05-15T02:05:50.800Z,34.95
2023-05-15T02:06:50.820Z,34.95
2023-05-15T02:07:50.857Z,34.92
2023-05-15T02:08:50.861Z,34.93
2023-05-15T02:09:50.887Z,34.97
2023-05-15T02:10:50.902Z,34.92
2023-05-15T02:11:50.903Z,34.90
2023-05-15T02:12:50.916Z,34.99
2023-05-15T02:13:50.952Z,34.95
2023-05-15T02:14:50.947Z,34.96
2023-05-15T02:15:50.994Z,34.93
2023-05-15T02:16:50.977Z,34.99
2023-05-15T02:17:51.045Z,34.96
2023-05-15T02:18:51.040Z,34.93
2023-05-15T02:19:51.053Z,34.92
2023-05-15T02:20:51.043Z,34.97
2023-05-15T02:21:51.063Z,34.94
2023-05-15T02:22:51.078Z,34.92
2023-05-15T02:23:51.107Z,34.92
2023-05-15T02:24:51.100Z,34.94
2023-05-15T02:25:51.131Z,34.95
2023-05-15T02:26:51.172Z,34.89
2023-05-15T02:27:51.148Z,34.97
2023-05-15T02:28:51.157Z,34.98
2023-05-15T02:29:51.182Z,34.99
2023-05-15T02:30:51.197Z,34.93
2023-05-15T02:31:51.284Z,34.93
2023-05-15T02:32:51.282Z,34.93
2023-05-15T02:33:51.279Z,34.98
2023-05-15T02:34:51.299Z,34.94
2023-05-15T02:35:51.378Z,34.92
2023-05-15T02:36:51.321Z,34.95
2023-05-15T02:37:51.336Z,34.97
2023-05-15T02:38:51.347Z,34.96
2023-05-15T02:39:51.368Z,34.99
2023-05-15T02:40:51.389Z,34.94
2023-05-15T02:41:51.397Z,34.97
2023-05-15T02:42:51.421Z,34.93
2023-05-15T02:43:51.432Z,35.01
2023-05-15T02:44:51.463Z,34.93
2023-05-15T02:45:51.490Z,34.96
2023-05-15T02:46:51.499Z,34.94
2023-05-15T02:47:51.573Z,34.97
2023-05-15T02:48:51.530Z,34.95
2023-05-15T02:49:51.542Z,34.95
2023-05-15T02:50:51.561Z,34.94
2023-05-15T02:51:51.607Z,34.95
2023-05-15T02:52:51.609Z,34.98
2023-05-15T02:53:51.617Z,34.97
2023-05-15T02:54:52.002Z,34.92
2023-05-15T02:55:52.062Z,34.93
2023-05-15T02:56:52.065Z,34.96
2023-05-15T02:57:52.054Z,34.90
2023-05-15T02:58:52.060Z,34.94
2023-05-15T02:59:52.063Z,34.91
2023-05-15T03:00:52.090Z,34.93
2023-05-15T03:01:52.058Z,34.95
2023-05-15T03:02:52.082Z,34.98
2023-05-15T03:03:52.118Z,34.95
2023-05-15T03:04:52.074Z,34.93
2023-05-15T03:05:52.064Z,34.91
2023-05-15T03:06:52.079Z,34.94
2023-05-15T03:07:52.108Z,34.95
2023-05-15T03:08:52.081Z,34.95
2023-05-15T03:09:52.068Z,34.93
2023-05-15T03:10:52.443Z,34.97
2023-05-15T03:11:52.077Z,34.94
2023-05-15T03:12:52.071Z,34.95
2023-05-15T03:13:52.074Z,34.95
2023-05-15T03:14:52.062Z,34.95
2023-05-15T03:15:52.078Z,34.95
2023-05-15T03:16:52.165Z,34.93
2023-05-15T03:17:52.157Z,34.93
2023-05-15T03:18:52.131Z,34.93
2023-05-15T03:19:52.084Z,34.95
2023-05-15T03:20:52.093Z,34.97
2023-05-15T03:21:52.124Z,34.97
2023-05-15T03:22:52.139Z,34.94
2023-05-15T03:23:52.187Z,35.01
2023-05-15T03:24:52.183Z,34.98
2023-05-15T03:25:52.209Z,34.93
2023-05-15T03:26:52.215Z,34.93
2023-05-15T03:27:52.232Z,34.91
2023-05-15T03:28:52.255Z,34.97
2023-05-15T03:29:52.268Z,34.97
2023-05-15T03:30:52.316Z,34.92
2023-05-15T03:31:52.396Z,34.94
2023-05-15T03:32:52.418Z,34.97
2023-05-15T03:33:52.366Z,34.99
2023-05-15T03:34:52.389Z,34.95
2023-05-15T03:35:52.424Z,35.03
2023-05-15T03:36:52.497Z,34.98
2023-05-15T03:37:52.472Z,34.98
2023-05-15T03:38:52.483Z,34.91
2023-05-15T03:39:52.521Z,34.95
2023-05-15T03:40:52.513Z,34.94
2023-05-15T03:41:52.544Z,34.95
2023-05-15T03:42:52.561Z,34.98
2023-05-15T03:43:52.594Z,34.97
2023-05-15T03:44:52.617Z,34.92
2023-05-15T03:45:52.646Z,34.94
2023-05-15T03:46:52.830Z,34.90
2023-05-15T03:47:53.072Z,34.94
2023-05-15T03:48:53.091Z,34.91
2023-05-15T03:49:53.087Z,34.93
2023-05-15T03:50:53.089Z,34.99
2023-05-15T03:51:53.089Z,34.95
2023-05-15T03:52:53.103Z,34.99
2023-05-15T03:53:53.086Z,34.95
2023-05-15T03:54:53.089Z,34.95
2023-05-15T03:55:53.114Z,34.97
2023-05-15T03:56:53.096Z,34.96
2023-05-15T03:57:53.088Z,34.94
2023-05-15T03:58:53.085Z,34.92
2023-05-15T03:59:53.090Z,34.93
2023-05-15T04:00:53.085Z,34.98
2023-05-15T04:02:04.257Z,34.96
2023-05-15T04:02:53.149Z,34.97
2023-05-15T04:03:53.110Z,34.99
2023-05-15T04:04:53.170Z,34.94
2023-05-15T04:05:53.086Z,34.90
2023-05-15T04:06:53.110Z,34.94
2023-05-15T04:07:53.093Z,34.96
2023-05-15T04:08:53.092Z,34.95
2023-05-15T04:09:53.090Z,34.99
2023-05-15T04:10:53.103Z,34.98
2023-05-15T04:11:53.128Z,34.96
2023-05-15T04:12:53.101Z,34.95
2023-05-15T04:13:53.103Z,34.93
2023-05-15T04:14:53.102Z,34.98
2023-05-15T04:15:53.277Z,34.99
2023-05-15T04:16:53.137Z,34.99
2023-05-15T04:17:53.186Z,34.99
2023-05-15T04:18:53.126Z,34.98
2023-05-15T04:19:53.131Z,34.93
2023-05-15T04:20:53.106Z,34.99
2023-05-15T04:21:53.154Z,34.95
2023-05-15T04:22:53.105Z,34.99
2023-05-15T04:23:53.112Z,34.96
2023-05-15T04:24:53.101Z,35.00
2023-05-15T04:25:53.142Z,34.98
2023-05-15T04:26:53.158Z,34.96
2023-05-15T04:27:53.152Z,35.00
2023-05-15T04:29:03.507Z,34.99
2023-05-15T04:29:53.130Z,34.95
2023-05-15T04:30:53.104Z,34.96
2023-05-15T04:31:53.147Z,34.97
2023-05-15T04:32:53.156Z,34.93
2023-05-15T04:33:53.125Z,34.98
2023-05-15T04:34:53.117Z,34.99
2023-05-15T04:35:53.111Z,34.98
2023-05-15T04:36:53.110Z,34.96
2023-05-15T04:37:53.110Z,34.96
2023-05-15T04:38:53.110Z,34.98
2023-05-15T04:39:53.104Z,35.01
2023-05-15T04:40:53.108Z,34.99
2023-05-15T04:41:53.065Z,34.97
2023-05-15T04:42:53.095Z,34.96
2023-05-15T04:43:52.789Z,34.96
2023-05-15T04:44:52.698Z,34.97
2023-05-15T04:45:52.736Z,34.99
2023-05-15T04:46:52.691Z,35.00
2023-05-15T04:47:52.744Z,34.96
2023-05-15T04:48:52.693Z,35.00
2023-05-15T04:49:52.674Z,34.98
2023-05-15T04:50:52.675Z,35.01
2023-05-15T04:51:52.654Z,34.96
2023-05-15T04:52:52.652Z,34.96
2023-05-15T04:53:52.667Z,34.96
2023-05-15T04:54:52.676Z,34.97
2023-05-15T04:55:52.638Z,34.96
2023-05-15T04:56:52.646Z,34.97
2023-05-15T04:57:52.615Z,35.00
2023-05-15T04:58:52.605Z,34.95
2023-05-15T04:59:52.682Z,34.99
2023-05-15T05:00:52.587Z,34.99
2023-05-15T05:01:52.585Z,34.97
2023-05-15T05:02:52.641Z,34.96
2023-05-15T05:03:52.669Z,34.95
2023-05-15T05:04:52.607Z,35.00
2023-05-15T05:05:52.624Z,34.97
2023-05-15T05:06:53.147Z,34.95
2023-05-15T05:07:52.680Z,34.95
2023-05-15T05:08:52.702Z,35.01
2023-05-15T05:09:53.098Z,34.95
2023-05-15T05:10:53.147Z,34.96
2023-05-15T05:11:52.794Z,35.01
2023-05-15T05:12:52.813Z,34.96
2023-05-15T05:13:52.857Z,35.00
2023-05-15T05:14:52.877Z,34.99
2023-05-15T05:15:52.985Z,35.00
2023-05-15T05:16:52.952Z,34.92
2023-05-15T05:17:52.973Z,34.97
2023-05-15T05:18:53.071Z,34.96
2023-05-15T05:19:53.019Z,34.97
2023-05-15T05:20:53.085Z,34.95
2023-05-15T05:21:53.566Z,35.04
2023-05-15T05:22:53.101Z,35.08
2023-05-15T05:23:53.141Z,35.18
2023-05-15T05:24:53.173Z,35.28
2023-05-15T05:25:53.168Z,35.37
2023-05-15T05:26:53.567Z,35.35
2023-05-15T05:27:53.226Z,35.24
2023-05-15T05:28:53.555Z,35.39
2023-05-15T05:29:53.312Z,35.61
2023-05-15T05:30:53.389Z,35.70
2023-05-15T05:31:53.638Z,35.77
2023-05-15T05:32:53.436Z,35.80
2023-05-15T05:33:53.637Z,35.90
2023-05-15T05:34:53.432Z,35.98
2023-05-15T05:35:53.435Z,36.04
2023-05-15T05:36:53.570Z,36.04
2023-05-15T05:37:53.477Z,36.09
2023-05-15T05:38:53.568Z,36.13
2023-05-15T05:39:53.543Z,36.14
2023-05-15T05:40:53.576Z,36.31
2023-05-15T05:41:54.068Z,36.29
2023-05-15T05:42:53.659Z,36.34
2023-05-15T05:43:53.705Z,36.49
2023-05-15T05:44:53.745Z,36.51
2023-05-15T05:45:53.790Z,36.64
2023-05-15T05:46:54.244Z,36.83
2023-05-15T05:47:53.963Z,36.91
2023-05-15T05:48:53.953Z,37.03
2023-05-15T05:49:55.025Z,37.14
2023-05-15T05:50:54.105Z,37.31
2023-05-15T05:51:54.640Z,37.23
2023-05-15T05:52:54.210Z,37.29
2023-05-15T05:53:55.291Z,37.63
2023-05-15T05:54:54.331Z,37.77
2023-05-15T05:55:54.405Z,37.77
2023-05-15T05:56:54.568Z,37.88
2023-05-15T05:57:54.565Z,38.37
2023-05-15T06:00:01.896Z,38.40
2023-05-15T06:00:54.568Z,38.71
2023-05-15T06:02:26.387Z,38.84
2023-05-15T06:02:54.696Z,39.00
2023-05-15T06:03:54.676Z,39.03
2023-05-15T06:05:10.121Z,38.92
2023-05-15T06:05:57.665Z,38.87
2023-05-15T06:07:54.458Z,39.54
2023-05-15T06:09:10.040Z,39.89
2023-05-15T06:10:01.871Z,40.07
2023-05-15T06:11:01.814Z,40.35
2023-05-15T06:11:57.939Z,40.47
2023-05-15T06:12:54.452Z,40.66
2023-05-15T06:14:26.192Z,40.79
2023-05-15T06:14:54.401Z,41.02
2023-05-15T06:15:54.382Z,41.00
2023-05-15T06:16:54.465Z,41.09
2023-05-15T06:17:54.401Z,41.10
2023-05-15T06:18:55.438Z,41.27
2023-05-15T06:19:54.384Z,41.30
2023-05-15T06:20:54.353Z,41.16
2023-05-15T06:21:54.572Z,41.17
2023-05-15T06:23:02.085Z,41.29
2023-05-15T06:23:54.324Z,41.28
2023-05-15T06:24:54.318Z,41.64
2023-05-15T06:25:54.341Z,41.72
2023-05-15T06:26:54.602Z,41.82
2023-05-15T06:28:09.923Z,41.87
2023-05-15T06:28:54.332Z,42.05
2023-05-15T06:29:54.285Z,42.20
2023-05-15T06:30:54.309Z,42.09
2023-05-15T06:31:54.575Z,42.32
2023-05-15T06:32:54.637Z,42.35
2023-05-15T06:33:54.260Z,42.39
2023-05-15T06:34:54.240Z,42.43
2023-05-15T06:35:54.448Z,42.52
2023-05-15T06:36:54.574Z,42.60
2023-05-15T06:37:55.378Z,42.66
2023-05-15T06:38:54.210Z,42.77
2023-05-15T06:39:54.218Z,42.86
2023-05-15T06:40:54.611Z,42.91
2023-05-15T06:42:10.171Z,42.97
2023-05-15T06:43:01.588Z,43.17
2023-05-15T06:44:01.981Z,43.24
2023-05-15T06:44:54.214Z,43.15
2023-05-15T06:45:54.210Z,43.27
2023-05-15T06:46:54.613Z,43.37
2023-05-15T06:47:54.210Z,43.44
2023-05-15T06:48:54.228Z,43.60
2023-05-15T06:49:55.127Z,43.61
2023-05-15T06:50:54.155Z,43.62
2023-05-15T06:51:54.614Z,43.79
2023-05-15T06:52:54.108Z,43.74
2023-05-15T06:53:54.599Z,43.76
2023-05-15T06:54:54.819Z,43.69
2023-05-15T06:55:54.105Z,43.93
2023-05-15T06:56:54.595Z,43.91
2023-05-15T06:57:54.212Z,43.90
2023-05-15T06:59:54.074Z,43.78
2023-05-15T07:01:01.524Z,43.86
2023-05-15T07:01:57.349Z,43.78
2023-05-15T07:02:55.261Z,43.85
2023-05-15T07:03:54.205Z,43.91
2023-05-15T07:04:54.247Z,43.87
2023-05-15T07:05:54.086Z,44.05
2023-05-15T07:07:01.466Z,44.02
2023-05-15T07:07:54.066Z,43.97
2023-05-15T07:08:54.134Z,44.06
2023-05-15T07:09:54.196Z,44.09
2023-05-15T07:10:54.104Z,44.31
2023-05-15T07:11:54.018Z,44.27
2023-05-15T07:12:54.016Z,44.34
2023-05-15T07:13:53.989Z,44.49
2023-05-15T07:14:53.961Z,44.50
2023-05-15T07:15:54.093Z,44.43
2023-05-15T07:16:53.948Z,44.53
2023-05-15T07:17:55.058Z,44.47
2023-05-15T07:18:54.040Z,44.62
2023-05-15T07:19:53.951Z,44.51
2023-05-15T07:20:54.621Z,44.70
2023-05-15T07:21:54.204Z,44.74
2023-05-15T07:22:56.837Z,44.74
2023-05-15T07:23:53.889Z,44.69
2023-05-15T07:24:53.878Z,44.87
2023-05-15T07:25:53.882Z,44.83
2023-05-15T07:26:58.868Z,44.87
2023-05-15T07:27:54.896Z,44.87
2023-05-15T07:28:53.854Z,44.90
2023-05-15T07:29:54.264Z,45.05
2023-05-15T07:30:54.359Z,45.04
2023-05-15T07:31:54.393Z,44.87
2023-05-15T07:32:53.869Z,44.66
2023-05-15T07:33:57.060Z,44.59
2023-05-15T07:34:53.820Z,44.51
2023-05-15T07:36:53.784Z,44.15
2023-05-15T07:37:53.825Z,44.20
2023-05-15T07:38:57.078Z,44.20
2023-05-15T07:39:53.804Z,44.15
2023-05-15T07:40:53.748Z,44.26
2023-05-15T07:41:54.230Z,44.35
2023-05-15T07:42:55.218Z,44.51
2023-05-15T07:43:53.798Z,44.57
2023-05-15T07:44:53.782Z,44.55
2023-05-15T07:45:53.901Z,44.47
2023-05-15T07:46:53.828Z,44.74
2023-05-15T07:47:54.180Z,44.63
2023-05-15T07:48:53.819Z,44.62
2023-05-15T07:49:54.984Z,44.53
2023-05-15T07:50:53.908Z,44.52
2023-05-15T07:51:54.218Z,44.52
2023-05-15T07:52:57.812Z,44.68
2023-05-15T07:54:26.295Z,44.85
2023-05-15T07:54:53.926Z,45.07
2023-05-15T07:55:57.120Z,45.05
2023-05-15T07:56:57.300Z,45.13
2023-05-15T07:57:57.308Z,45.12
2023-05-15T07:59:09.570Z,45.33
2023-05-15T07:59:57.152Z,45.28
2023-05-15T08:00:53.888Z,45.38
2023-05-15T08:01:57.507Z,45.18
2023-05-15T08:02:54.178Z,45.10
2023-05-15T08:03:53.923Z,44.88
2023-05-15T08:04:53.853Z,44.67
2023-05-15T08:05:53.840Z,44.41
2023-05-15T08:06:53.832Z,44.17
2023-05-15T08:07:54.120Z,43.74
2023-05-15T08:08:53.817Z,43.14
2023-05-15T08:09:53.944Z,43.03
2023-05-15T08:10:53.801Z,42.98
2023-05-15T08:11:53.789Z,42.81
2023-05-15T08:12:54.124Z,42.53
2023-05-15T08:13:53.793Z,42.36
2023-05-15T08:14:53.755Z,41.93
2023-05-15T08:15:53.795Z,41.58
2023-05-15T08:16:53.745Z,41.30
2023-05-15T08:17:54.150Z,41.21
2023-05-15T08:18:53.797Z,41.23
2023-05-15T08:19:53.728Z,41.15
2023-05-15T08:20:53.712Z,40.96
2023-05-15T08:21:53.700Z,40.82
2023-05-15T08:22:53.695Z,40.66
2023-05-15T08:23:53.940Z,40.63
2023-05-15T08:24:53.686Z,40.52
2023-05-15T08:25:53.692Z,40.57
2023-05-15T08:26:53.663Z,40.51
2023-05-15T08:27:54.112Z,40.48
2023-05-15T08:28:54.647Z,40.45
2023-05-15T08:29:57.447Z,40.25
2023-05-15T08:30:53.701Z,40.21
2023-05-15T08:31:53.652Z,40.18
2023-05-15T08:32:54.203Z,40.05
2023-05-15T08:33:53.636Z,39.99
2023-05-15T08:34:54.128Z,40.02
2023-05-15T08:35:53.664Z,40.00
2023-05-15T08:36:53.620Z,39.96
2023-05-15T08:37:53.614Z,39.89
2023-05-15T08:38:53.603Z,39.92
2023-05-15T08:39:53.617Z,39.90
2023-05-15T08:40:53.582Z,39.89
2023-05-15T08:41:53.622Z,39.93
2023-05-15T08:42:53.570Z,39.58
2023-05-15T08:43:56.759Z,39.35
2023-05-15T08:44:53.618Z,39.25
2023-05-15T08:45:53.553Z,39.19
2023-05-15T08:46:53.736Z,39.20
2023-05-15T08:48:01.096Z,39.36
2023-05-15T08:48:56.778Z,39.41
2023-05-15T08:49:56.796Z,39.41
2023-05-15T08:50:53.502Z,39.47
2023-05-15T08:51:53.487Z,39.59
2023-05-15T08:52:53.622Z,39.71
2023-05-15T08:53:53.493Z,39.76
2023-05-15T08:54:53.484Z,39.90
2023-05-15T08:55:53.486Z,39.99
2023-05-15T08:56:53.465Z,40.14
2023-05-15T08:58:01.061Z,40.34
2023-05-15T08:58:56.647Z,40.44
2023-05-15T08:59:53.456Z,40.48
2023-05-15T09:00:53.425Z,40.55
2023-05-15T09:01:53.446Z,40.68
2023-05-15T09:02:53.700Z,40.69
2023-05-15T09:03:53.434Z,40.72
2023-05-15T09:04:53.652Z,40.83
2023-05-15T09:05:53.407Z,40.92
2023-05-15T09:06:53.406Z,40.94
2023-05-15T09:07:53.359Z,40.94
2023-05-15T09:08:53.372Z,41.01
2023-05-15T09:09:53.639Z,41.10
2023-05-15T09:10:53.340Z,41.07
2023-05-15T09:11:53.345Z,41.11
2023-05-15T09:12:53.367Z,41.17
2023-05-15T09:13:53.366Z,41.27
2023-05-15T09:14:53.636Z,41.36
2023-05-15T09:16:53.455Z,41.43
2023-05-15T09:17:53.381Z,41.42
2023-05-15T09:18:53.362Z,41.48
2023-05-15T09:19:53.298Z,41.53
2023-05-15T09:20:55.473Z,41.53
2023-05-15T09:21:53.256Z,41.54
2023-05-15T09:22:53.656Z,41.49
2023-05-15T09:23:53.347Z,41.53
2023-05-15T09:24:53.634Z,41.56
2023-05-15T09:25:53.990Z,41.63
2023-05-15T09:26:53.246Z,41.67
2023-05-15T09:27:53.211Z,41.73
2023-05-15T09:28:53.205Z,41.78
2023-05-15T09:29:53.236Z,41.82
2023-05-15T09:30:53.640Z,41.83
2023-05-15T09:31:53.238Z,41.82
2023-05-15T09:32:53.269Z,41.98
2023-05-15T09:34:53.169Z,42.14
2023-05-15T09:36:53.661Z,42.41
2023-05-15T09:37:53.648Z,42.40
2023-05-15T09:38:53.140Z,42.72
2023-05-15T09:39:53.400Z,42.76
2023-05-15T09:40:53.134Z,42.90
2023-05-15T09:41:54.136Z,43.06
2023-05-15T09:42:53.502Z,43.14
2023-05-15T09:43:53.453Z,42.95
2023-05-15T09:44:53.097Z,42.83
2023-05-15T09:45:53.226Z,42.67
2023-05-15T09:46:53.216Z,42.48
2023-05-15T09:47:53.260Z,42.34
2023-05-15T09:48:53.142Z,42.12
2023-05-15T09:49:53.080Z,41.94
2023-05-15T09:50:53.124Z,41.77
2023-05-15T09:51:53.140Z,41.67
2023-05-15T09:52:53.307Z,41.50
2023-05-15T09:53:53.235Z,41.33
2023-05-15T09:54:53.256Z,41.22
2023-05-15T09:55:53.656Z,41.15
2023-05-15T09:56:53.340Z,40.98
2023-05-15T09:57:54.644Z,40.83
2023-05-15T09:58:53.383Z,40.69
2023-05-15T09:59:53.428Z,40.52
2023-05-15T10:00:53.464Z,40.44
2023-05-15T10:01:53.579Z,40.33
2023-05-15T10:02:53.568Z,40.27
2023-05-15T10:03:53.589Z,40.15
2023-05-15T10:04:53.661Z,40.06
2023-05-15T10:05:53.701Z,39.99
2023-05-15T10:06:53.721Z,39.88
2023-05-15T10:07:54.403Z,39.80
2023-05-15T10:08:53.878Z,39.65
2023-05-15T10:09:53.868Z,39.63
2023-05-15T10:10:53.933Z,39.54
2023-05-15T10:11:54.377Z,39.49
2023-05-15T10:12:54.716Z,39.41
2023-05-15T10:13:54.377Z,39.32
2023-05-15T10:14:54.372Z,39.27
2023-05-15T10:15:54.151Z,39.28
2023-05-15T10:16:54.185Z,39.20
2023-05-15T10:17:54.746Z,39.16
2023-05-15T10:18:54.387Z,39.13
2023-05-15T10:19:58.353Z,39.06
2023-05-15T10:20:54.354Z,39.06
2023-05-15T10:21:54.402Z,39.04
2023-05-15T10:22:55.669Z,39.05
2023-05-15T10:23:54.663Z,38.97
2023-05-15T10:24:54.665Z,38.68
2023-05-15T10:25:57.808Z,38.68
2023-05-15T10:26:55.598Z,38.56
2023-05-15T10:27:54.595Z,38.67
2023-05-15T10:28:54.566Z,38.56
2023-05-15T10:29:54.668Z,38.44
2023-05-15T10:30:54.601Z,38.39
2023-05-15T10:31:54.643Z,38.33
2023-05-15T10:32:55.174Z,38.03
2023-05-15T10:33:54.596Z,37.73
2023-05-15T10:34:54.532Z,37.06
2023-05-15T10:35:54.510Z,37.14
2023-05-15T10:36:54.504Z,37.15
2023-05-15T10:37:54.547Z,37.65
2023-05-15T10:38:54.612Z,37.76
2023-05-15T10:39:54.627Z,37.89
2023-05-15T10:41:02.725Z,37.98
2023-05-15T10:41:55.169Z,37.98
2023-05-15T10:42:54.626Z,37.98
2023-05-15T10:43:54.607Z,38.08
2023-05-15T10:44:54.604Z,38.11
2023-05-15T10:45:54.597Z,38.09
2023-05-15T10:46:54.641Z,38.11
2023-05-15T10:47:54.623Z,38.11
2023-05-15T10:48:54.730Z,38.08
2023-05-15T10:49:54.595Z,38.07
2023-05-15T10:50:54.560Z,38.10
2023-05-15T10:51:54.550Z,37.99
2023-05-15T10:52:54.556Z,38.06
2023-05-15T10:53:54.676Z,38.02
2023-05-15T10:54:54.521Z,38.12
2023-05-15T10:55:54.550Z,38.22
2023-05-15T10:56:54.672Z,38.68
2023-05-15T10:57:54.496Z,38.71
2023-05-15T10:58:54.549Z,39.08
2023-05-15T10:59:54.480Z,39.36
2023-05-15T11:00:54.560Z,39.66
2023-05-15T11:01:54.666Z,39.45
2023-05-15T11:02:54.499Z,39.32
2023-05-15T11:03:55.411Z,38.98
2023-05-15T11:04:54.438Z,39.29
2023-05-15T11:05:54.463Z,38.97
2023-05-15T11:06:54.421Z,38.65
2023-05-15T11:07:54.433Z,38.57
2023-05-15T11:08:55.186Z,38.51
2023-05-15T11:09:54.421Z,38.54
2023-05-15T11:10:54.407Z,38.51
2023-05-15T11:11:54.408Z,38.47
2023-05-15T11:12:54.376Z,38.49
2023-05-15T11:13:54.699Z,38.53
2023-05-15T11:14:54.370Z,38.61
2023-05-15T11:15:54.356Z,38.59
2023-05-15T11:16:54.408Z,38.59
2023-05-15T11:17:54.380Z,38.66
2023-05-15T11:18:54.727Z,38.77
2023-05-15T11:19:54.335Z,38.79
2023-05-15T11:20:54.678Z,38.79
2023-05-15T11:21:55.193Z,38.89
2023-05-15T11:22:54.346Z,38.92
2023-05-15T11:23:54.363Z,39.34
2023-05-15T11:24:54.814Z,39.63
2023-05-15T11:25:54.685Z,39.76
2023-05-15T11:26:54.524Z,40.10
2023-05-15T11:27:54.585Z,40.15
2023-05-15T11:28:54.622Z,40.25
2023-05-15T11:29:54.674Z,40.47
2023-05-15T11:30:54.757Z,40.58
2023-05-15T11:31:54.735Z,40.70
2023-05-15T11:32:54.789Z,40.86
2023-05-15T11:33:54.776Z,40.96
2023-05-15T11:34:55.587Z,40.95
2023-05-15T11:35:54.816Z,41.22
2023-05-15T11:36:55.199Z,41.17
2023-05-15T11:37:54.883Z,41.28
2023-05-15T11:38:54.872Z,41.41
2023-05-15T11:39:55.194Z,41.53
2023-05-15T11:40:54.917Z,41.55
2023-05-15T11:41:55.183Z,41.64
2023-05-15T11:42:54.909Z,41.71
2023-05-15T11:43:55.300Z,41.86
2023-05-15T11:44:54.916Z,41.86
2023-05-15T11:45:54.906Z,41.97
2023-05-15T11:46:54.962Z,42.09
2023-05-15T11:47:55.715Z,42.18
2023-05-15T11:48:55.362Z,42.20
2023-05-15T11:49:54.892Z,42.36
2023-05-15T11:50:54.886Z,42.49
2023-05-15T11:51:54.917Z,42.57
2023-05-15T11:52:54.931Z,42.72
2023-05-15T11:53:55.377Z,42.75
2023-05-15T11:54:55.349Z,42.90
2023-05-15T11:55:55.000Z,42.90
2023-05-15T11:56:55.038Z,43.09
2023-05-15T11:57:55.050Z,43.17
2023-05-15T11:58:55.192Z,43.12
2023-05-15T11:59:55.093Z,43.21
2023-05-15T12:00:55.096Z,43.35
2023-05-15T12:01:55.101Z,43.52
2023-05-15T12:02:55.170Z,43.57
2023-05-15T12:03:55.514Z,43.58
2023-05-15T12:04:55.166Z,43.56
2023-05-15T12:05:58.926Z,43.71
2023-05-15T12:06:55.394Z,43.71
2023-05-15T12:07:55.437Z,43.69
2023-05-15T12:08:55.728Z,43.79
2023-05-15T12:09:55.587Z,43.80
2023-05-15T12:10:55.585Z,43.91
2023-05-15T12:11:55.653Z,43.94
2023-05-15T12:12:58.902Z,44.03
2023-05-15T12:13:56.194Z,43.96
2023-05-15T12:14:55.701Z,44.00
2023-05-15T12:15:55.706Z,44.13
2023-05-15T12:16:55.831Z,44.36
2023-05-15T12:17:55.720Z,44.15
2023-05-15T12:18:55.735Z,44.45
2023-05-15T12:19:55.661Z,44.36
2023-05-15T12:20:55.662Z,44.31
2023-05-15T12:21:55.647Z,44.36
2023-05-15T12:22:55.647Z,44.15
2023-05-15T12:24:03.917Z,44.17
2023-05-15T12:24:55.706Z,44.31
2023-05-15T12:25:58.849Z,44.32
2023-05-15T12:26:57.510Z,44.22
2023-05-15T12:27:55.611Z,44.21
2023-05-15T12:28:55.750Z,44.44
2023-05-15T12:29:55.588Z,44.37
2023-05-15T12:30:55.603Z,44.39
2023-05-15T12:31:55.613Z,44.43
2023-05-15T12:32:55.640Z,44.56
2023-05-15T12:33:55.617Z,44.42
2023-05-15T12:34:55.559Z,44.49
2023-05-15T12:35:58.251Z,44.44
2023-05-15T12:36:55.545Z,44.34
2023-05-15T12:37:55.537Z,44.47
2023-05-15T12:38:55.710Z,44.58
2023-05-15T12:39:55.541Z,44.59
2023-05-15T12:40:55.515Z,44.72
2023-05-15T12:41:55.534Z,44.65
2023-05-15T12:42:55.538Z,44.85
2023-05-15T12:43:55.492Z,44.90
2023-05-15T12:44:55.503Z,44.83
2023-05-15T12:45:55.561Z,44.97
2023-05-15T12:46:55.466Z,44.91
2023-05-15T12:47:55.524Z,44.91
2023-05-15T12:48:55.470Z,45.06
2023-05-15T12:49:55.707Z,45.06
2023-05-15T12:50:55.450Z,45.12
2023-05-15T12:51:55.444Z,45.23
2023-05-15T12:52:55.436Z,45.13
2023-05-15T12:53:55.740Z,45.16
2023-05-15T12:54:55.745Z,45.22
2023-05-15T12:55:55.414Z,45.29
2023-05-15T12:57:00.188Z,45.40
2023-05-15T12:57:56.229Z,45.05
2023-05-15T12:58:55.399Z,44.90
2023-05-15T12:59:55.718Z,44.70